Pagrindinis puslapis
METAR-TAF:

METAR-TAF

Oro uostai :

Puntilla, Aliaska, Jungtinės Amerikos Valstijos

platuma: 62-06N, ilguma: 152-45W, Aukštis: 560 m

Dabartinis oras

Ataskaita buvo paskelbta 23 minutes, ne 21:00 UTC
Vėjas 8 kt iš Vakarų/Šiaurės Vakarų su gūsio iki 15 kt
Temperatūra 6°C
Drėgmė 70%
Slėgis 997 hPa
Matomumas: 40.2 km
Išsisklaidę debesys ne aukštis 5000 ft
Su prošvaistėmis ne aukštis 10000 ft

METAR: PAPT 212100Z 29008G15KT 25SM SCT050 BKN100 06/01 A2944 RMK NO SPECI.

Laikas: 13:23 (21:23 UTC)


TAF: trūkstamas

Orai ataskaitas ir orų prognozės (METAR, TAF).

turimą stotys yra geltonos ir raudonos taškus žemėlapyje.

Perkelti pele per norėdami pamatyti stoties vardą.

Tada spustelėkite, norėdami matyti oro stebėjimo ir prognozės.

Norėdami pakeisti žemėlapį: spustelėkite ant žalios mygtukų su juodo kryžiaus žemyn,; žalią mygtuką su brūkšneliu, jei norite nutolinti; arba žalių rodyklių gretimoms žemėlapius.


METAR-TAF: